createdAt,value
2023-03-15T00:00:45.612Z,3.87
2023-03-15T00:03:37.208Z,4.00
2023-03-15T00:06:26.230Z,4.10
2023-03-15T00:09:14.752Z,4.30
2023-03-15T00:12:03.631Z,3.77
2023-03-15T00:14:52.498Z,4.20
2023-03-15T00:17:42.723Z,4.30
2023-03-15T00:20:31.319Z,4.20
2023-03-15T00:23:20.440Z,3.43
2023-03-15T00:26:08.983Z,4.27
2023-03-15T00:28:57.512Z,4.40
2023-03-15T00:31:45.978Z,4.00
2023-03-15T00:34:35.794Z,3.97
2023-03-15T00:37:25.652Z,4.13
2023-03-15T00:40:14.586Z,3.77
2023-03-15T00:43:03.421Z,3.20
2023-03-15T00:45:51.878Z,4.17
2023-03-15T00:48:40.649Z,4.60
2023-03-15T00:51:30.752Z,4.40
2023-03-15T00:54:19.267Z,4.03
2023-03-15T00:57:07.749Z,4.13
2023-03-15T00:59:56.324Z,3.80
2023-03-15T01:02:45.233Z,3.97
2023-03-15T01:05:33.792Z,3.30
2023-03-15T01:08:24.156Z,4.07
2023-03-15T01:11:14.503Z,4.07
2023-03-15T01:14:03.634Z,3.50
2023-03-15T01:16:52.387Z,3.83
2023-03-15T01:19:40.848Z,4.00
2023-03-15T01:22:29.347Z,3.10
2023-03-15T01:25:19.439Z,3.10
2023-03-15T01:28:08.046Z,3.70
2023-03-15T01:30:57.929Z,3.40
2023-03-15T01:33:48.107Z,3.20
2023-03-15T01:36:36.717Z,3.20
2023-03-15T01:39:25.184Z,3.50
2023-03-15T01:42:15.108Z,3.53
2023-03-15T01:45:03.633Z,3.20
2023-03-15T01:47:53.450Z,3.27
2023-03-15T01:50:42.002Z,4.07
2023-03-15T01:53:31.574Z,3.53
2023-03-15T01:56:20.358Z,3.47
2023-03-15T01:59:14.605Z,3.70
2023-03-15T02:02:03.304Z,3.70
2023-03-15T02:04:55.418Z,4.53
2023-03-15T02:07:49.775Z,3.60
2023-03-15T02:10:39.774Z,3.23
2023-03-15T02:13:30.722Z,3.27
2023-03-15T02:16:21.137Z,2.80
2023-03-15T02:19:17.967Z,3.07
2023-03-15T02:22:14.501Z,3.10
2023-03-15T02:25:08.894Z,3.27
2023-03-15T02:27:59.554Z,3.00
2023-03-15T02:30:48.587Z,3.37
2023-03-15T02:33:41.838Z,3.13
2023-03-15T02:36:31.924Z,3.20
2023-03-15T02:39:21.999Z,3.47
2023-03-15T02:42:11.036Z,3.50
2023-03-15T02:45:00.846Z,3.33
2023-03-15T02:47:50.184Z,3.03
2023-03-15T02:50:38.846Z,3.93
2023-03-15T02:53:27.413Z,3.50
2023-03-15T02:56:16.590Z,3.67
2023-03-15T02:59:05.090Z,3.80
2023-03-15T03:01:55.025Z,3.80
2023-03-15T03:04:43.524Z,3.90
2023-03-15T03:07:32.237Z,2.60
2023-03-15T03:10:21.449Z,3.33
2023-03-15T03:13:09.977Z,4.67
2023-03-15T03:15:59.529Z,3.90
2023-03-15T03:18:49.583Z,4.43
2023-03-15T03:21:38.023Z,4.10
2023-03-15T03:24:27.328Z,4.77
2023-03-15T03:27:16.452Z,3.90
2023-03-15T03:30:05.350Z,4.00
2023-03-15T03:32:53.914Z,4.03
2023-03-15T03:35:44.802Z,3.90
2023-03-15T03:38:33.347Z,4.13
2023-03-15T03:41:22.097Z,4.20
2023-03-15T03:44:10.539Z,4.43
2023-03-15T03:46:58.976Z,5.10
2023-03-15T03:49:47.374Z,4.37
2023-03-15T03:52:37.202Z,4.63
2023-03-15T03:55:25.695Z,6.07
2023-03-15T03:58:14.239Z,5.40
2023-03-15T04:01:03.983Z,5.20
2023-03-15T04:03:52.569Z,4.57
2023-03-15T04:06:45.516Z,5.13
2023-03-15T04:09:37.676Z,4.23
2023-03-15T04:12:26.236Z,5.20
2023-03-15T04:15:14.722Z,4.60
2023-03-15T04:18:05.788Z,5.30
2023-03-15T04:20:54.767Z,4.87
2023-03-15T04:23:43.412Z,4.90
2023-03-15T04:26:34.605Z,4.90
2023-03-15T04:29:23.220Z,5.17
2023-03-15T04:32:12.247Z,4.43
2023-03-15T04:35:02.150Z,4.40
2023-03-15T04:37:51.687Z,4.30
2023-03-15T04:40:42.857Z,4.93
2023-03-15T04:43:32.740Z,4.80
2023-03-15T04:46:23.054Z,5.23
2023-03-15T04:49:13.054Z,4.60
2023-03-15T04:52:01.683Z,5.07
2023-03-15T04:54:50.188Z,4.33
2023-03-15T04:57:38.704Z,5.20
2023-03-15T05:00:28.652Z,4.90
2023-03-15T05:03:17.171Z,4.47
2023-03-15T05:06:08.273Z,4.47
2023-03-15T05:08:57.243Z,5.27
2023-03-15T05:11:46.175Z,4.63
2023-03-15T05:14:34.854Z,4.60
2023-03-15T05:17:24.767Z,4.40
2023-03-15T05:20:14.231Z,4.87
2023-03-15T05:23:03.121Z,5.03
2023-03-15T05:25:54.564Z,4.37
2023-03-15T05:28:45.334Z,4.30
2023-03-15T05:31:36.997Z,5.20
2023-03-15T05:34:27.078Z,4.40
2023-03-15T05:37:15.541Z,5.90
2023-03-15T05:40:08.128Z,4.90
2023-03-15T05:42:56.817Z,5.73
2023-03-15T05:45:47.137Z,5.03
2023-03-15T05:48:35.688Z,4.80
2023-03-15T05:51:25.602Z,5.67
2023-03-15T05:54:14.104Z,4.70
2023-03-15T05:57:02.604Z,4.57
2023-03-15T05:59:57.101Z,4.93
2023-03-15T06:02:46.641Z,5.23
2023-03-15T06:05:35.122Z,5.93
2023-03-15T06:08:25.082Z,4.20
2023-03-15T06:11:13.589Z,5.57
2023-03-15T06:14:02.376Z,5.20
2023-03-15T06:16:50.995Z,4.47
2023-03-15T06:19:39.531Z,5.20
2023-03-15T06:22:28.307Z,5.30
2023-03-15T06:25:18.259Z,4.73
2023-03-15T06:28:06.890Z,4.80
2023-03-15T06:30:55.484Z,3.83
2023-03-15T06:33:44.067Z,4.00
2023-03-15T06:36:32.549Z,3.80
2023-03-15T06:39:21.064Z,4.23
2023-03-15T06:42:13.068Z,4.90
2023-03-15T06:45:02.022Z,4.53
2023-03-15T06:47:50.592Z,4.20
2023-03-15T06:50:46.923Z,3.67
2023-03-15T06:53:36.186Z,4.70
2023-03-15T06:56:24.774Z,4.10
2023-03-15T06:59:14.694Z,3.87
2023-03-15T07:02:03.216Z,4.90
2023-03-15T07:04:51.960Z,3.97
2023-03-15T07:07:40.708Z,4.20
2023-03-15T07:10:29.180Z,4.10
2023-03-15T07:13:20.154Z,4.20
2023-03-15T07:16:10.084Z,4.23
2023-03-15T07:19:01.303Z,4.80
2023-03-15T07:21:49.864Z,3.90
2023-03-15T07:24:38.372Z,3.47
2023-03-15T07:27:27.540Z,4.10
2023-03-15T07:30:16.154Z,4.27
2023-03-15T07:33:06.107Z,3.90
2023-03-15T07:35:55.092Z,4.00
2023-03-15T07:38:43.781Z,3.27
2023-03-15T07:41:32.338Z,4.10
2023-03-15T07:44:21.142Z,3.40
2023-03-15T07:47:10.249Z,4.03
2023-03-15T07:50:00.329Z,3.30
2023-03-15T07:52:48.794Z,3.93
2023-03-15T07:55:37.540Z,3.60
2023-03-15T07:58:26.164Z,3.83
2023-03-15T08:01:14.702Z,3.40
2023-03-15T08:04:03.214Z,4.17
2023-03-15T08:06:53.252Z,3.73
2023-03-15T08:09:41.697Z,4.10
2023-03-15T08:12:31.653Z,4.13
2023-03-15T08:15:21.253Z,4.07
2023-03-15T08:18:10.235Z,4.27
2023-03-15T08:20:59.271Z,3.80
2023-03-15T08:23:49.177Z,3.40
2023-03-15T08:26:37.713Z,3.90
2023-03-15T08:29:28.726Z,3.80
2023-03-15T08:32:18.084Z,3.00
2023-03-15T08:35:07.654Z,4.10
2023-03-15T08:37:56.586Z,4.20
2023-03-15T08:40:46.760Z,3.63
2023-03-15T08:43:35.266Z,3.67
2023-03-15T08:46:23.760Z,3.37
2023-03-15T08:49:12.277Z,2.87
2023-03-15T08:52:00.823Z,3.03
2023-03-15T08:54:49.473Z,2.93
2023-03-15T08:57:39.436Z,3.30
2023-03-15T09:00:28.538Z,2.40
2023-03-15T09:03:17.153Z,2.93
2023-03-15T09:06:05.963Z,2.47
2023-03-15T09:08:54.863Z,3.17
2023-03-15T09:11:43.407Z,2.63
2023-03-15T09:14:33.680Z,2.60
2023-03-15T09:17:22.991Z,2.60
2023-03-15T09:20:15.348Z,2.77
2023-03-15T09:23:04.059Z,2.30
2023-03-15T09:25:53.234Z,2.60
2023-03-15T09:28:41.713Z,2.50
2023-03-15T09:31:31.768Z,2.17
2023-03-15T09:34:21.782Z,2.40
2023-03-15T09:37:11.358Z,1.90
2023-03-15T09:40:00.101Z,2.20
2023-03-15T09:42:59.329Z,2.50
2023-03-15T09:45:59.972Z,2.03
2023-03-15T09:48:52.718Z,2.27
2023-03-15T09:51:47.874Z,2.40
2023-03-15T09:54:42.823Z,2.37
2023-03-15T09:57:37.874Z,2.37
2023-03-15T10:00:32.081Z,2.50
2023-03-15T10:03:23.473Z,2.30
2023-03-15T10:06:18.766Z,2.80
2023-03-15T10:09:13.844Z,2.47
2023-03-15T10:12:12.982Z,1.90
2023-03-15T10:15:27.464Z,2.90
2023-03-15T10:18:31.262Z,2.27
2023-03-15T10:21:29.576Z,2.57
2023-03-15T10:24:21.078Z,2.10
2023-03-15T10:27:17.348Z,2.37
2023-03-15T10:30:17.239Z,2.00
2023-03-15T10:33:11.499Z,2.37
2023-03-15T10:36:10.589Z,2.60
2023-03-15T10:39:01.550Z,2.57
2023-03-15T10:41:50.960Z,2.50
2023-03-15T10:44:39.569Z,2.40
2023-03-15T10:47:28.828Z,2.00
2023-03-15T10:50:27.291Z,2.53
2023-03-15T10:53:21.836Z,2.10
2023-03-15T10:56:20.291Z,2.37
2023-03-15T10:59:17.303Z,2.57
2023-03-15T11:02:20.237Z,2.23
2023-03-15T11:05:17.226Z,2.20
2023-03-15T11:08:05.780Z,2.27
2023-03-15T11:10:59.246Z,2.30
2023-03-15T11:13:59.649Z,2.40
2023-03-15T11:16:51.030Z,2.00
2023-03-15T11:19:43.120Z,2.17
2023-03-15T11:22:32.002Z,3.17
2023-03-15T11:25:25.012Z,2.40
2023-03-15T11:28:18.632Z,2.30
2023-03-15T11:31:08.878Z,2.27
2023-03-15T11:33:58.563Z,2.93
2023-03-15T11:36:55.672Z,2.50
2023-03-15T11:40:01.594Z,3.00
2023-03-15T11:42:57.403Z,3.00
2023-03-15T11:45:49.132Z,3.07
2023-03-15T11:48:42.125Z,3.00
2023-03-15T11:51:34.448Z,3.17
2023-03-15T11:54:23.813Z,3.00
2023-03-15T11:57:37.547Z,3.30
2023-03-15T12:00:50.591Z,2.97
2023-03-15T12:03:42.139Z,2.60
2023-03-15T12:06:38.623Z,2.87
2023-03-15T12:09:52.071Z,2.30
2023-03-15T12:12:46.680Z,2.20
2023-03-15T12:15:48.318Z,1.70
2023-03-15T12:18:46.041Z,2.30
2023-03-15T12:21:36.166Z,2.10
2023-03-15T12:24:27.354Z,2.20
2023-03-15T12:27:17.230Z,1.97
2023-03-15T12:30:07.150Z,2.20
2023-03-15T12:32:57.055Z,2.00
2023-03-15T12:35:47.403Z,2.13
2023-03-15T12:38:38.527Z,2.20
2023-03-15T12:41:39.417Z,2.27
2023-03-15T12:44:39.353Z,3.80
2023-03-15T12:47:45.075Z,3.10
2023-03-15T12:50:38.011Z,2.80
2023-03-15T12:53:39.669Z,2.80
2023-03-15T12:56:33.658Z,2.70
2023-03-15T12:59:41.164Z,2.90
2023-03-15T13:02:42.655Z,2.67
2023-03-15T13:05:36.224Z,2.43
2023-03-15T13:08:26.565Z,2.50
2023-03-15T13:11:20.813Z,3.03
2023-03-15T13:14:25.858Z,7.80
2023-03-15T13:17:25.633Z,3.43
2023-03-15T13:20:23.137Z,3.27
2023-03-15T13:23:16.141Z,3.43
2023-03-15T13:26:15.906Z,3.07
2023-03-15T13:29:14.239Z,3.70
2023-03-15T13:32:09.870Z,3.53
2023-03-15T13:34:58.538Z,2.67
2023-03-15T13:37:47.047Z,4.37
2023-03-15T13:40:35.739Z,3.43
2023-03-15T13:43:29.031Z,3.87
2023-03-15T13:46:20.210Z,3.43
2023-03-15T13:49:08.775Z,3.20
2023-03-15T13:51:57.333Z,2.73
2023-03-15T13:54:46.037Z,2.63
2023-03-15T13:57:34.881Z,2.40
2023-03-15T14:00:24.111Z,1.87
2023-03-15T14:03:16.742Z,2.00
2023-03-15T14:06:05.509Z,2.63
2023-03-15T14:08:55.870Z,2.40
2023-03-15T14:11:44.861Z,2.60
2023-03-15T14:14:37.817Z,2.60
2023-03-15T14:17:28.758Z,3.17
2023-03-15T14:20:19.192Z,3.83
2023-03-15T14:23:11.548Z,3.03
2023-03-15T14:26:17.339Z,3.10
2023-03-15T14:29:08.577Z,3.53
2023-03-15T14:32:01.557Z,3.67
2023-03-15T14:34:50.320Z,4.80
2023-03-15T14:37:42.588Z,3.63
2023-03-15T14:40:34.823Z,3.90
2023-03-15T14:43:23.606Z,3.67
2023-03-15T14:46:12.525Z,3.63
2023-03-15T14:49:01.201Z,3.97
2023-03-15T14:51:53.877Z,3.17
2023-03-15T14:54:49.437Z,3.73
2023-03-15T14:57:37.994Z,2.80
2023-03-15T15:00:27.154Z,2.57
2023-03-15T15:03:18.570Z,2.43
2023-03-15T15:06:08.985Z,2.50
2023-03-15T15:08:59.396Z,2.20
2023-03-15T15:11:49.467Z,2.10
2023-03-15T15:14:37.986Z,2.40
2023-03-15T15:17:26.464Z,2.37
2023-03-15T15:20:15.701Z,2.30
2023-03-15T15:23:04.388Z,2.17
2023-03-15T15:25:54.794Z,2.20
2023-03-15T15:28:44.718Z,2.30
2023-03-15T15:31:34.678Z,2.33
2023-03-15T15:34:23.702Z,2.60
2023-03-15T15:37:12.516Z,2.30
2023-03-15T15:40:01.365Z,2.50
2023-03-15T15:42:50.127Z,2.67
2023-03-15T15:45:40.431Z,3.10
2023-03-15T15:48:29.052Z,3.20
2023-03-15T15:51:27.166Z,2.57
2023-03-15T15:54:16.850Z,3.80
2023-03-15T15:57:05.775Z,3.63
2023-03-15T15:59:57.120Z,2.80
2023-03-15T16:02:47.538Z,2.83
2023-03-15T16:05:36.405Z,2.57
2023-03-15T16:08:25.991Z,3.00
2023-03-15T16:11:16.332Z,2.97
2023-03-15T16:14:04.846Z,2.80
2023-03-15T16:16:53.552Z,2.70
2023-03-15T16:19:46.604Z,3.17
2023-03-15T16:22:35.393Z,3.00
2023-03-15T16:25:29.300Z,2.57
2023-03-15T16:28:17.899Z,2.57
2023-03-15T16:31:06.772Z,3.00
2023-03-15T16:33:55.311Z,2.93
2023-03-15T16:36:49.183Z,3.33
2023-03-15T16:39:38.202Z,3.00
2023-03-15T16:42:26.826Z,4.20
2023-03-15T16:45:16.403Z,3.63
2023-03-15T16:48:05.195Z,4.00
2023-03-15T16:50:55.316Z,4.40
2023-03-15T16:53:45.547Z,3.73
2023-03-15T16:56:35.752Z,3.10
2023-03-15T16:59:24.281Z,4.73
2023-03-15T17:02:17.717Z,3.57
2023-03-15T17:05:06.844Z,2.97
2023-03-15T17:07:55.911Z,3.20
2023-03-15T17:10:46.312Z,3.50
2023-03-15T17:13:40.471Z,3.37
2023-03-15T17:16:29.004Z,2.70
2023-03-15T17:19:17.636Z,2.90
2023-03-15T17:22:06.726Z,3.73
2023-03-15T17:24:55.541Z,3.30
2023-03-15T17:27:46.537Z,3.30
2023-03-15T17:30:36.775Z,3.47
2023-03-15T17:33:26.092Z,3.20
2023-03-15T17:36:15.661Z,4.03
2023-03-15T17:39:04.495Z,4.30
2023-03-15T17:41:52.958Z,4.53
2023-03-15T17:44:42.985Z,3.97
2023-03-15T17:47:32.367Z,4.40
2023-03-15T17:50:21.967Z,4.63
2023-03-15T17:53:15.094Z,5.90
2023-03-15T17:56:03.582Z,5.93
2023-03-15T17:58:52.585Z,6.83
2023-03-15T18:01:43.488Z,6.70
2023-03-15T18:04:32.325Z,7.80
2023-03-15T18:07:21.056Z,8.27
2023-03-15T18:10:11.956Z,9.53
2023-03-15T18:13:00.517Z,11.40
2023-03-15T18:15:52.452Z,10.60
2023-03-15T18:18:42.789Z,10.03
2023-03-15T18:21:31.266Z,10.97
2023-03-15T18:24:20.194Z,9.57
2023-03-15T18:27:08.721Z,18.60
2023-03-15T18:29:58.673Z,13.40
2023-03-15T18:32:47.509Z,15.60
2023-03-15T18:35:37.760Z,10.63
2023-03-15T18:38:26.422Z,8.93
2023-03-15T18:41:20.495Z,8.90
2023-03-15T18:44:10.317Z,8.50
2023-03-15T18:46:58.840Z,8.37
2023-03-15T18:49:47.573Z,5.87
2023-03-15T18:52:38.260Z,8.87
2023-03-15T18:55:27.311Z,7.90
2023-03-15T18:58:15.897Z,7.23
2023-03-15T19:01:04.431Z,8.73
2023-03-15T19:03:56.388Z,9.67
2023-03-15T19:06:45.025Z,11.00
2023-03-15T19:09:35.007Z,12.37
2023-03-15T19:12:23.507Z,12.80
2023-03-15T19:15:15.309Z,9.73
2023-03-15T19:18:03.801Z,9.23
2023-03-15T19:20:54.915Z,9.87
2023-03-15T19:23:43.450Z,9.70
2023-03-15T19:26:33.348Z,10.60
2023-03-15T19:29:21.844Z,17.17
2023-03-15T19:32:10.802Z,14.80
2023-03-15T19:34:59.368Z,9.87
2023-03-15T19:37:48.073Z,14.87
2023-03-15T19:40:37.086Z,10.83
2023-03-15T19:43:27.083Z,10.67
2023-03-15T19:46:17.281Z,12.60
2023-03-15T19:49:05.955Z,12.70
2023-03-15T19:51:54.460Z,15.33
2023-03-15T19:54:43.011Z,14.43
2023-03-15T19:57:31.602Z,11.70
2023-03-15T20:00:23.294Z,13.30
2023-03-15T20:03:13.002Z,12.40
2023-03-15T20:06:05.751Z,16.10
2023-03-15T20:08:54.595Z,14.90
2023-03-15T20:11:43.144Z,14.60
2023-03-15T20:14:31.662Z,12.07
2023-03-15T20:17:22.164Z,11.57
2023-03-15T20:20:13.640Z,13.33
2023-03-15T20:23:02.274Z,13.97
2023-03-15T20:25:51.228Z,13.23
2023-03-15T20:28:40.824Z,13.33
2023-03-15T20:31:29.403Z,17.20
2023-03-15T20:34:19.601Z,19.67
2023-03-15T20:37:08.160Z,17.17
2023-03-15T20:39:56.784Z,18.13
2023-03-15T20:42:45.580Z,16.47
2023-03-15T20:45:34.275Z,16.10
2023-03-15T20:48:24.715Z,16.23
2023-03-15T20:51:14.600Z,14.60
2023-03-15T20:54:03.177Z,15.33
2023-03-15T20:56:51.787Z,16.67
2023-03-15T20:59:40.527Z,17.03
2023-03-15T21:02:29.105Z,15.40
2023-03-15T21:05:18.482Z,16.33
2023-03-15T21:08:09.483Z,16.20
2023-03-15T21:10:58.154Z,16.20
2023-03-15T21:13:47.053Z,17.13
2023-03-15T21:16:35.748Z,16.40
2023-03-15T21:19:24.806Z,16.17
2023-03-15T21:22:13.373Z,17.00
2023-03-15T21:25:03.357Z,14.70
2023-03-15T21:27:51.906Z,16.40
2023-03-15T21:30:40.484Z,14.90
2023-03-15T21:33:30.950Z,16.73
2023-03-15T21:36:19.484Z,16.37
2023-03-15T21:39:08.150Z,16.80
2023-03-15T21:41:58.006Z,15.83
2023-03-15T21:44:46.542Z,16.27
2023-03-15T21:47:37.867Z,15.70
2023-03-15T21:50:26.880Z,15.20
2023-03-15T21:53:15.599Z,15.70
2023-03-15T21:56:05.095Z,14.93
2023-03-15T21:58:55.163Z,16.40
2023-03-15T22:01:43.683Z,16.40
2023-03-15T22:04:33.985Z,15.80
2023-03-15T22:07:22.569Z,15.37
2023-03-15T22:10:12.287Z,14.93
2023-03-15T22:13:00.764Z,15.87
2023-03-15T22:15:51.822Z,15.43
2023-03-15T22:18:40.813Z,15.03
2023-03-15T22:21:29.374Z,17.97
2023-03-15T22:24:17.991Z,16.80
2023-03-15T22:27:06.873Z,16.93
2023-03-15T22:29:55.427Z,16.20
2023-03-15T22:32:45.396Z,15.77
2023-03-15T22:35:33.993Z,16.73
2023-03-15T22:38:22.788Z,14.20
2023-03-15T22:41:13.898Z,16.87
2023-03-15T22:44:02.482Z,15.80
2023-03-15T22:46:51.068Z,15.30
2023-03-15T22:49:41.007Z,15.93
2023-03-15T22:52:29.483Z,16.30
2023-03-15T22:55:19.133Z,15.47
2023-03-15T22:58:07.584Z,15.10
2023-03-15T23:00:56.094Z,14.83
2023-03-15T23:03:44.655Z,16.00
2023-03-15T23:06:34.743Z,14.90
2023-03-15T23:09:23.275Z,15.03
2023-03-15T23:12:12.400Z,14.67
2023-03-15T23:15:02.556Z,15.27
2023-03-15T23:17:53.862Z,15.90
2023-03-15T23:20:42.929Z,14.80
2023-03-15T23:23:32.784Z,13.80
2023-03-15T23:26:25.228Z,15.43
2023-03-15T23:29:13.840Z,14.20
2023-03-15T23:32:02.403Z,15.00
2023-03-15T23:34:51.114Z,14.87
2023-03-15T23:37:39.699Z,13.60
2023-03-15T23:40:30.133Z,15.07
2023-03-15T23:43:18.758Z,14.40
2023-03-15T23:46:07.585Z,13.67
2023-03-15T23:48:56.142Z,14.73
2023-03-15T23:51:44.678Z,13.73
2023-03-15T23:54:39.142Z,16.47
2023-03-15T23:57:29.712Z,14.70
